Tribune, Canada
Current Conditions -  °F | °C
As of 7:55 AM on Wednesday 22 Oct 2014 (Local Time) from KD50 Reporting Station
Clear Clear  
Wind Chill: 40°   Ceiling: Unl
Heat Index: 46°   Visibility: 10mi
Dew Point: 45°   Wind: 16mph
Humidity: 93%   Direction: 230°SW
Pressure: 29.74"   Gusts: 22mph
Location:  49.25°N, 103.82°W
Report Text: KD50 221355Z AUTO 23014G19KT 10SM CLR 08/07 A2974 RMK AO2
Loading
Personal Weather Stations






























Interactive Weather Map
Tropical Storm Tracking
New forecast layout! Learn more

10-Day Weather Forecast

Advertisements
Track Severe Weather on mobile